createdAt,value
2023-06-12T00:01:51.150Z,21.10
2023-06-12T00:04:17.672Z,21.00
2023-06-12T00:06:45.651Z,20.97
2023-06-12T00:09:12.486Z,20.97
2023-06-12T00:11:41.553Z,20.94
2023-06-12T00:14:08.310Z,20.89
2023-06-12T00:16:34.971Z,20.95
2023-06-12T00:19:01.778Z,20.91
2023-06-12T00:21:28.220Z,20.91
2023-06-12T00:23:54.695Z,20.90
2023-06-12T00:26:21.211Z,20.82
2023-06-12T00:28:47.716Z,20.71
2023-06-12T00:31:14.196Z,20.70
2023-06-12T00:33:42.083Z,20.62
2023-06-12T00:36:08.542Z,20.54
2023-06-12T00:38:35.935Z,20.51
2023-06-12T00:41:02.581Z,20.42
2023-06-12T00:43:29.111Z,20.42
2023-06-12T00:45:56.298Z,20.38
2023-06-12T00:48:23.056Z,20.33
2023-06-12T00:50:49.667Z,20.33
2023-06-12T00:53:16.142Z,20.28
2023-06-12T00:55:42.575Z,20.19
2023-06-12T00:58:09.057Z,20.13
2023-06-12T01:00:39.436Z,20.06
2023-06-12T01:03:09.579Z,20.03
2023-06-12T01:05:39.482Z,20.00
2023-06-12T01:08:25.425Z,19.98
2023-06-12T01:10:55.313Z,20.00
2023-06-12T01:13:22.331Z,19.98
2023-06-12T01:15:49.437Z,19.90
2023-06-12T01:18:16.343Z,19.82
2023-06-12T01:20:43.267Z,19.75
2023-06-12T01:23:32.504Z,19.64
2023-06-12T01:26:11.053Z,19.58
2023-06-12T01:28:48.053Z,19.53
2023-06-12T01:31:44.358Z,19.45
2023-06-12T01:34:16.239Z,19.38
2023-06-12T01:36:49.889Z,19.30
2023-06-12T01:39:17.038Z,19.22
2023-06-12T01:41:44.805Z,19.16
2023-06-12T01:44:11.662Z,19.07
2023-06-12T01:46:38.938Z,19.03
2023-06-12T01:49:07.235Z,18.98
2023-06-12T01:51:34.093Z,18.97
2023-06-12T01:54:01.987Z,18.87
2023-06-12T01:56:28.763Z,18.80
2023-06-12T01:58:55.824Z,18.77
2023-06-12T02:01:24.930Z,18.82
2023-06-12T02:03:51.808Z,18.76
2023-06-12T02:06:18.437Z,18.66
2023-06-12T02:08:45.288Z,18.59
2023-06-12T02:11:11.855Z,18.53
2023-06-12T02:13:38.262Z,18.50
2023-06-12T02:16:07.392Z,18.51
2023-06-12T02:18:34.491Z,18.50
2023-06-12T02:21:01.008Z,18.44
2023-06-12T02:23:27.501Z,18.37
2023-06-12T02:25:53.903Z,18.30
2023-06-12T02:28:20.328Z,18.23
2023-06-12T02:30:46.737Z,18.15
2023-06-12T02:33:14.197Z,18.04
2023-06-12T02:35:41.031Z,17.98
2023-06-12T02:38:07.594Z,17.90
2023-06-12T02:40:34.127Z,17.83
2023-06-12T02:43:00.987Z,17.75
2023-06-12T02:45:27.605Z,17.69
2023-06-12T02:47:54.050Z,17.67
2023-06-12T02:50:20.522Z,17.62
2023-06-12T02:52:47.236Z,17.53
2023-06-12T02:55:13.699Z,17.45
2023-06-12T02:57:40.180Z,17.39
2023-06-12T03:00:07.445Z,17.34
2023-06-12T03:02:34.229Z,17.31
2023-06-12T03:05:00.798Z,17.27
2023-06-12T03:07:29.759Z,17.15
2023-06-12T03:09:56.307Z,17.04
2023-06-12T03:12:22.739Z,16.84
2023-06-12T03:14:50.549Z,16.61
2023-06-12T03:17:17.063Z,16.57
2023-06-12T03:19:45.658Z,16.62
2023-06-12T03:22:12.104Z,16.69
2023-06-12T03:24:38.636Z,16.72
2023-06-12T03:27:05.974Z,16.78
2023-06-12T03:29:32.518Z,16.81
2023-06-12T03:31:59.085Z,16.86
2023-06-12T03:34:25.825Z,17.06
2023-06-12T03:36:52.354Z,17.21
2023-06-12T03:39:18.833Z,17.40
2023-06-12T03:41:58.972Z,17.58
2023-06-12T03:44:25.800Z,17.51
2023-06-12T03:46:52.282Z,17.42
2023-06-12T03:49:18.740Z,17.55
2023-06-12T03:51:45.519Z,18.06
2023-06-12T03:54:12.773Z,18.77
2023-06-12T03:56:39.258Z,18.91
2023-06-12T03:59:06.177Z,18.68
2023-06-12T04:01:32.603Z,18.41
2023-06-12T04:03:59.223Z,18.18
2023-06-12T04:06:25.889Z,18.12
2023-06-12T04:08:55.191Z,18.09
2023-06-12T04:11:23.045Z,18.30
2023-06-12T04:13:49.507Z,18.61
2023-06-12T04:16:16.359Z,19.77
2023-06-12T04:18:43.757Z,20.87
2023-06-12T04:21:10.301Z,21.63
2023-06-12T04:23:38.482Z,21.86
2023-06-12T04:26:08.049Z,22.05
2023-06-12T04:28:36.676Z,22.15
2023-06-12T04:31:03.956Z,22.47
2023-06-12T04:33:31.469Z,22.71
2023-06-12T04:35:59.619Z,22.76
2023-06-12T04:38:26.414Z,22.67
2023-06-12T04:40:55.216Z,22.51
2023-06-12T04:43:22.525Z,21.84
2023-06-12T04:45:49.698Z,21.17
2023-06-12T04:48:16.434Z,20.94
2023-06-12T04:50:43.056Z,21.96
2023-06-12T04:53:09.704Z,23.30
2023-06-12T04:55:36.237Z,23.65
2023-06-12T04:58:03.233Z,23.64
2023-06-12T05:00:30.071Z,23.39
2023-06-12T05:02:56.949Z,23.58
2023-06-12T05:05:23.458Z,24.91
2023-06-12T05:07:49.898Z,25.50
2023-06-12T05:10:16.972Z,25.62
2023-06-12T05:12:43.681Z,25.58
2023-06-12T05:15:10.894Z,25.71
2023-06-12T05:17:38.674Z,25.58
2023-06-12T05:20:10.032Z,25.59
2023-06-12T05:22:37.452Z,24.90
2023-06-12T05:25:04.904Z,24.42
2023-06-12T05:27:31.515Z,24.51
2023-06-12T05:29:57.957Z,24.86
2023-06-12T05:32:24.465Z,25.47
2023-06-12T05:34:51.370Z,26.41
2023-06-12T05:37:18.018Z,27.10
2023-06-12T05:39:44.480Z,27.34
2023-06-12T05:42:11.319Z,27.49
2023-06-12T05:44:38.028Z,27.71
2023-06-12T05:47:04.618Z,27.93
2023-06-12T05:49:31.110Z,28.17
2023-06-12T05:51:57.739Z,28.72
2023-06-12T05:54:24.184Z,29.16
2023-06-12T05:56:50.579Z,29.81
2023-06-12T05:59:17.043Z,30.54
2023-06-12T06:01:43.508Z,30.35
2023-06-12T06:04:12.648Z,29.98
2023-06-12T06:06:39.777Z,29.65
2023-06-12T06:09:09.210Z,29.71
2023-06-12T06:11:35.815Z,29.82
2023-06-12T06:14:02.397Z,29.70
2023-06-12T06:16:36.889Z,29.73
2023-06-12T06:19:15.392Z,29.44
2023-06-12T06:21:41.975Z,29.63
2023-06-12T06:24:08.897Z,29.66
2023-06-12T06:26:35.439Z,29.51
2023-06-12T06:29:12.708Z,29.39
2023-06-12T06:31:41.218Z,29.54
2023-06-12T06:34:07.784Z,29.86
2023-06-12T06:36:34.311Z,29.99
2023-06-12T06:39:00.892Z,29.68
2023-06-12T06:41:28.017Z,29.39
2023-06-12T06:43:54.706Z,29.64
2023-06-12T06:46:21.268Z,29.96
2023-06-12T06:48:47.753Z,29.94
2023-06-12T06:51:16.648Z,30.24
2023-06-12T06:53:43.110Z,30.59
2023-06-12T06:56:09.689Z,30.40
2023-06-12T06:58:36.123Z,30.33
2023-06-12T07:01:02.650Z,30.28
2023-06-12T07:03:29.229Z,30.19
2023-06-12T07:05:55.852Z,30.48
2023-06-12T07:08:22.340Z,30.38
2023-06-12T07:10:48.765Z,30.38
2023-06-12T07:13:15.499Z,30.48
2023-06-12T07:15:42.060Z,30.48
2023-06-12T07:18:08.682Z,30.65
2023-06-12T07:20:35.248Z,30.83
2023-06-12T07:23:01.728Z,30.63
2023-06-12T07:25:28.627Z,30.44
2023-06-12T07:27:55.100Z,30.76
2023-06-12T07:30:21.628Z,30.79
2023-06-12T07:32:48.115Z,30.51
2023-06-12T07:35:15.976Z,31.05
2023-06-12T07:37:44.072Z,31.62
2023-06-12T07:40:11.169Z,31.48
2023-06-12T07:42:37.732Z,31.22
2023-06-12T07:45:04.971Z,30.99
2023-06-12T07:47:31.610Z,30.78
2023-06-12T07:49:59.610Z,30.13
2023-06-12T07:52:26.208Z,29.86
2023-06-12T07:54:53.020Z,29.06
2023-06-12T07:57:19.469Z,28.79
2023-06-12T07:59:47.607Z,28.63
2023-06-12T08:02:16.016Z,28.55
2023-06-12T08:04:43.809Z,28.55
2023-06-12T08:07:12.679Z,28.49
2023-06-12T08:09:41.418Z,28.34
2023-06-12T08:12:08.721Z,28.25
2023-06-12T08:14:35.252Z,28.24
2023-06-12T08:17:01.763Z,28.21
2023-06-12T08:19:29.636Z,28.26
2023-06-12T08:21:56.501Z,28.40
2023-06-12T08:24:23.399Z,28.32
2023-06-12T08:26:50.172Z,28.21
2023-06-12T08:29:16.939Z,27.98
2023-06-12T08:31:43.472Z,28.14
2023-06-12T08:34:09.899Z,28.41
2023-06-12T08:36:37.922Z,28.45
2023-06-12T08:39:04.901Z,28.38
2023-06-12T08:41:37.070Z,28.52
2023-06-12T08:44:03.741Z,28.72
2023-06-12T08:46:31.965Z,28.70
2023-06-12T08:49:02.040Z,28.92
2023-06-12T08:51:29.992Z,28.85
2023-06-12T08:53:57.736Z,28.85
2023-06-12T08:56:25.346Z,28.78
2023-06-12T08:58:51.849Z,28.78
2023-06-12T09:01:19.319Z,29.02
2023-06-12T09:03:51.296Z,28.89
2023-06-12T09:06:20.045Z,28.89
2023-06-12T09:08:46.773Z,28.96
2023-06-12T09:11:13.419Z,29.08
2023-06-12T09:13:42.187Z,28.95
2023-06-12T09:16:17.750Z,28.93
2023-06-12T09:18:52.497Z,28.98
2023-06-12T09:21:22.283Z,28.81
2023-06-12T09:23:53.650Z,28.88
2023-06-12T09:26:23.114Z,29.00
2023-06-12T09:28:53.911Z,28.93
2023-06-12T09:31:21.068Z,28.93
2023-06-12T09:33:51.479Z,28.89
2023-06-12T09:36:20.475Z,28.83
2023-06-12T09:38:48.618Z,28.86
2023-06-12T09:41:15.132Z,29.01
2023-06-12T09:43:41.593Z,29.16
2023-06-12T09:46:09.654Z,29.25
2023-06-12T09:51:22.627Z,29.32
2023-06-12T09:53:52.000Z,29.28
2023-06-12T09:56:18.841Z,29.18
2023-06-12T09:58:49.062Z,28.89
2023-06-12T10:01:19.026Z,28.90
2023-06-12T10:03:49.143Z,28.85
2023-06-12T10:06:18.333Z,28.78
2023-06-12T10:08:45.140Z,28.87
2023-06-12T10:11:13.472Z,28.88
2023-06-12T10:13:40.540Z,28.85
2023-06-12T10:16:08.085Z,29.03
2023-06-12T10:18:35.407Z,29.26
2023-06-12T10:21:03.947Z,29.34
2023-06-12T10:23:34.503Z,29.47
2023-06-12T10:26:02.783Z,29.44
2023-06-12T10:28:29.651Z,29.43
2023-06-12T10:31:13.309Z,29.35
2023-06-12T10:33:57.018Z,29.39
2023-06-12T10:36:24.198Z,29.32
2023-06-12T10:39:02.965Z,29.28
2023-06-12T10:41:36.673Z,29.43
2023-06-12T10:44:32.261Z,29.44
2023-06-12T10:47:02.514Z,29.48
2023-06-12T10:49:29.379Z,29.42
2023-06-12T10:51:56.077Z,29.46
2023-06-12T10:54:27.130Z,29.48
2023-06-12T10:57:04.216Z,29.66
2023-06-12T10:59:39.902Z,29.40
2023-06-12T11:02:06.524Z,29.32
2023-06-12T11:04:38.606Z,29.38
2023-06-12T11:07:06.041Z,29.41
2023-06-12T11:09:42.281Z,29.51
2023-06-12T11:12:09.218Z,29.50
2023-06-12T11:14:35.740Z,29.49
2023-06-12T11:17:02.395Z,29.64
2023-06-12T11:19:29.640Z,29.69
2023-06-12T11:21:57.006Z,29.55
2023-06-12T11:24:24.506Z,29.43
2023-06-12T11:26:52.005Z,29.46
2023-06-12T11:29:21.243Z,29.41
2023-06-12T11:31:52.120Z,29.44
2023-06-12T11:34:18.599Z,29.30
2023-06-12T11:36:45.162Z,29.22
2023-06-12T11:41:50.655Z,29.31
2023-06-12T11:44:17.711Z,29.39
2023-06-12T11:46:45.135Z,29.49
2023-06-12T11:49:14.067Z,29.63
2023-06-12T11:51:40.932Z,29.70
2023-06-12T11:54:08.928Z,29.91
2023-06-12T11:59:04.876Z,29.85
2023-06-12T12:01:37.776Z,30.04
2023-06-12T12:04:06.201Z,30.18
2023-06-12T12:06:49.194Z,30.47
2023-06-12T12:09:16.030Z,30.50
2023-06-12T12:11:42.621Z,30.32
2023-06-12T12:14:09.201Z,30.21
2023-06-12T12:16:41.223Z,30.37
2023-06-12T12:19:27.442Z,30.19
2023-06-12T12:21:56.300Z,30.35
2023-06-12T12:24:23.172Z,30.42
2023-06-12T12:26:52.361Z,30.27
2023-06-12T12:29:19.598Z,30.20
2023-06-12T12:31:46.576Z,30.24
2023-06-12T12:34:13.404Z,30.21
2023-06-12T12:36:41.672Z,30.16
2023-06-12T12:39:08.246Z,30.38
2023-06-12T12:41:36.439Z,30.52
2023-06-12T12:44:02.943Z,30.57
2023-06-12T12:46:29.757Z,30.42
2023-06-12T12:48:56.315Z,30.58
2023-06-12T12:51:22.822Z,30.91
2023-06-12T12:53:49.246Z,30.95
2023-06-12T12:56:15.721Z,30.97
2023-06-12T12:58:43.788Z,31.12
2023-06-12T13:01:10.985Z,31.06
2023-06-12T13:03:39.526Z,31.23
2023-06-12T13:06:11.798Z,31.45
2023-06-12T13:08:39.011Z,31.77
2023-06-12T13:11:05.517Z,31.82
2023-06-12T13:13:33.390Z,31.64
2023-06-12T13:16:00.327Z,31.57
2023-06-12T13:18:26.897Z,31.55
2023-06-12T13:20:54.666Z,31.35
2023-06-12T13:23:21.622Z,31.26
2023-06-12T13:25:48.085Z,31.20
2023-06-12T13:28:14.759Z,30.78
2023-06-12T13:30:41.177Z,30.41
2023-06-12T13:33:07.791Z,30.44
2023-06-12T13:35:36.765Z,30.85
2023-06-12T13:38:04.809Z,31.31
2023-06-12T13:40:31.362Z,31.10
2023-06-12T13:42:57.812Z,30.84
2023-06-12T13:45:24.643Z,30.96
2023-06-12T13:47:51.121Z,31.21
2023-06-12T13:50:17.612Z,31.04
2023-06-12T13:52:46.036Z,31.05
2023-06-12T13:55:12.453Z,30.34
2023-06-12T13:57:40.192Z,30.06
2023-06-12T14:00:08.868Z,30.25
2023-06-12T14:02:35.456Z,30.88
2023-06-12T14:05:02.432Z,31.29
2023-06-12T14:07:29.366Z,31.43
2023-06-12T14:09:55.869Z,31.08
2023-06-12T14:12:24.070Z,30.55
2023-06-12T14:14:50.592Z,30.95
2023-06-12T14:17:18.305Z,31.31
2023-06-12T14:19:45.010Z,31.84
2023-06-12T14:22:13.342Z,31.85
2023-06-12T14:24:41.219Z,31.63
2023-06-12T14:27:08.327Z,31.49
2023-06-12T14:29:35.092Z,31.73
2023-06-12T14:32:01.595Z,31.79
2023-06-12T14:34:28.171Z,31.83
2023-06-12T14:36:54.643Z,31.81
2023-06-12T14:39:21.195Z,31.85
2023-06-12T14:41:47.732Z,31.72
2023-06-12T14:44:16.277Z,31.60
2023-06-12T14:46:43.208Z,31.56
2023-06-12T14:49:09.931Z,31.51
2023-06-12T14:51:36.431Z,31.85
2023-06-12T14:54:02.902Z,32.34
2023-06-12T14:56:29.757Z,32.64
2023-06-12T14:58:56.402Z,32.85
2023-06-12T15:01:23.019Z,32.90
2023-06-12T15:03:51.232Z,33.39
2023-06-12T15:06:17.896Z,33.05
2023-06-12T15:08:46.733Z,32.56
2023-06-12T15:11:13.566Z,32.65
2023-06-12T15:13:39.999Z,32.80
2023-06-12T15:16:06.706Z,32.69
2023-06-12T15:18:44.136Z,32.52
2023-06-12T15:21:11.463Z,32.41
2023-06-12T15:23:38.038Z,32.20
2023-06-12T15:26:04.643Z,32.06
2023-06-12T15:28:33.145Z,31.96
2023-06-12T15:30:59.887Z,31.53
2023-06-12T15:33:26.375Z,31.75
2023-06-12T15:35:52.801Z,31.36
2023-06-12T15:38:34.397Z,31.08
2023-06-12T15:41:01.867Z,30.72
2023-06-12T15:43:28.547Z,30.40
2023-06-12T15:45:57.141Z,30.18
2023-06-12T15:48:24.107Z,30.24
2023-06-12T15:50:50.630Z,30.81
2023-06-12T15:53:17.106Z,31.17
2023-06-12T15:55:43.723Z,31.50
2023-06-12T15:58:10.700Z,31.79
2023-06-12T16:00:37.215Z,32.47
2023-06-12T16:03:04.098Z,32.51
2023-06-12T16:05:30.554Z,32.39
2023-06-12T16:07:57.012Z,32.26
2023-06-12T16:10:26.181Z,31.89
2023-06-12T16:12:55.785Z,31.69
2023-06-12T16:15:22.231Z,31.35
2023-06-12T16:17:48.945Z,30.95
2023-06-12T16:20:15.716Z,31.18
2023-06-12T16:22:42.115Z,31.26
2023-06-12T16:25:09.054Z,30.81
2023-06-12T16:27:35.516Z,30.51
2023-06-12T16:30:02.624Z,30.37
2023-06-12T16:32:29.204Z,30.31
2023-06-12T16:34:55.795Z,30.35
2023-06-12T16:37:23.637Z,30.79
2023-06-12T16:40:10.946Z,30.81
2023-06-12T16:42:38.670Z,30.63
2023-06-12T16:45:08.872Z,30.35
2023-06-12T16:47:36.545Z,30.10
2023-06-12T16:50:03.591Z,29.62
2023-06-12T16:52:30.058Z,29.35
2023-06-12T16:54:56.758Z,29.19
2023-06-12T16:57:23.288Z,29.12
2023-06-12T16:59:50.019Z,29.02
2023-06-12T17:02:18.576Z,28.98
2023-06-12T17:04:46.223Z,28.87
2023-06-12T17:07:13.318Z,28.95
2023-06-12T17:09:40.836Z,28.85
2023-06-12T17:12:08.182Z,28.77
2023-06-12T17:14:36.408Z,28.61
2023-06-12T17:17:04.409Z,28.52
2023-06-12T17:19:31.035Z,28.32
2023-06-12T17:21:58.558Z,28.19
2023-06-12T17:24:25.378Z,28.03
2023-06-12T17:26:52.075Z,27.93
2023-06-12T17:29:18.651Z,27.88
2023-06-12T17:31:45.083Z,27.82
2023-06-12T17:34:11.602Z,27.76
2023-06-12T17:36:38.328Z,27.83
2023-06-12T17:39:04.733Z,27.96
2023-06-12T17:41:31.825Z,28.01
2023-06-12T17:43:58.362Z,28.06
2023-06-12T17:46:24.835Z,28.02
2023-06-12T17:48:51.403Z,27.92
2023-06-12T17:51:18.049Z,27.85
2023-06-12T17:53:44.557Z,27.72
2023-06-12T17:56:13.192Z,27.66
2023-06-12T17:58:40.841Z,27.62
2023-06-12T18:01:07.815Z,27.55
2023-06-12T18:03:34.306Z,27.49
2023-06-12T18:06:00.820Z,27.47
2023-06-12T18:08:27.738Z,27.42
2023-06-12T18:10:58.904Z,27.35
2023-06-12T18:13:25.298Z,27.33
2023-06-12T18:15:51.860Z,27.33
2023-06-12T18:18:18.455Z,27.23
2023-06-12T18:20:44.969Z,27.14
2023-06-12T18:23:11.424Z,27.14
2023-06-12T18:25:37.855Z,27.09
2023-06-12T18:28:04.389Z,26.98
2023-06-12T18:30:30.963Z,26.95
2023-06-12T18:32:59.153Z,26.91
2023-06-12T18:35:26.204Z,26.88
2023-06-12T18:37:53.926Z,26.80
2023-06-12T18:40:21.176Z,26.73
2023-06-12T18:42:47.584Z,26.70
2023-06-12T18:45:14.305Z,26.61
2023-06-12T18:47:41.462Z,26.51
2023-06-12T18:50:08.162Z,26.41
2023-06-12T18:52:35.951Z,26.38
2023-06-12T18:55:04.582Z,26.30
2023-06-12T18:57:31.310Z,26.24
2023-06-12T18:59:57.737Z,26.17
2023-06-12T19:02:25.859Z,26.13
2023-06-12T19:04:52.337Z,26.10
2023-06-12T19:07:18.890Z,26.02
2023-06-12T19:09:45.573Z,25.96
2023-06-12T19:12:12.046Z,25.80
2023-06-12T19:14:38.558Z,25.74
2023-06-12T19:17:06.172Z,25.62
2023-06-12T19:19:32.678Z,25.48
2023-06-12T19:21:59.348Z,25.40
2023-06-12T19:24:26.103Z,25.43
2023-06-12T19:26:52.571Z,25.24
2023-06-12T19:29:19.002Z,25.12
2023-06-12T19:31:45.508Z,24.98
2023-06-12T19:34:12.047Z,24.81
2023-06-12T19:36:38.548Z,24.71
2023-06-12T19:39:05.243Z,24.64
2023-06-12T19:41:32.508Z,24.53
2023-06-12T19:43:58.936Z,24.49
2023-06-12T19:46:27.584Z,24.44
2023-06-12T19:48:54.295Z,24.48
2023-06-12T19:51:21.765Z,24.35
2023-06-12T19:53:48.465Z,24.39
2023-06-12T19:56:14.944Z,24.46
2023-06-12T19:58:41.374Z,24.50
2023-06-12T20:01:07.814Z,24.43
2023-06-12T20:03:34.273Z,24.40
2023-06-12T20:06:01.361Z,24.26
2023-06-12T20:08:28.378Z,24.07
2023-06-12T20:10:54.796Z,23.95
2023-06-12T20:13:21.258Z,23.97
2023-06-12T20:15:47.763Z,23.89
2023-06-12T20:18:14.588Z,23.90
2023-06-12T20:20:41.133Z,23.85
2023-06-12T20:23:10.062Z,23.90
2023-06-12T20:25:36.789Z,23.86
2023-06-12T20:28:03.890Z,23.74
2023-06-12T20:30:30.677Z,23.67
2023-06-12T20:32:57.328Z,23.62
2023-06-12T20:35:24.319Z,23.59
2023-06-12T20:37:50.773Z,23.54
2023-06-12T20:40:17.393Z,23.50
2023-06-12T20:42:43.892Z,23.43
2023-06-12T20:45:11.022Z,23.35
2023-06-12T20:47:37.680Z,23.34
2023-06-12T20:50:04.280Z,23.29
2023-06-12T20:52:30.939Z,23.23
2023-06-12T20:54:57.572Z,23.22
2023-06-12T20:57:24.000Z,23.14
2023-06-12T20:59:51.317Z,23.08
2023-06-12T21:02:17.909Z,23.01
2023-06-12T21:04:44.372Z,22.93
2023-06-12T21:07:11.190Z,22.77
2023-06-12T21:09:37.564Z,22.66
2023-06-12T21:12:04.328Z,22.60
2023-06-12T21:14:30.976Z,22.53
2023-06-12T21:16:57.399Z,22.60
2023-06-12T21:19:23.851Z,22.56
2023-06-12T21:21:50.408Z,22.58
2023-06-12T21:24:17.534Z,22.52
2023-06-12T21:26:44.994Z,22.36
2023-06-12T21:29:11.740Z,22.36
2023-06-12T21:31:38.593Z,22.40
2023-06-12T21:34:05.129Z,22.29
2023-06-12T21:36:34.065Z,22.16
2023-06-12T21:39:01.094Z,22.16
2023-06-12T21:41:27.718Z,22.14
2023-06-12T21:43:54.879Z,22.21
2023-06-12T21:46:21.756Z,22.18
2023-06-12T21:48:48.229Z,22.14
2023-06-12T21:51:14.850Z,22.14
2023-06-12T21:53:41.325Z,22.18
2023-06-12T21:56:07.837Z,22.09
2023-06-12T21:58:34.503Z,21.97
2023-06-12T22:01:01.305Z,21.85
2023-06-12T22:03:29.005Z,21.83
2023-06-12T22:05:57.626Z,21.76
2023-06-12T22:08:25.398Z,21.64
2023-06-12T22:10:51.891Z,21.52
2023-06-12T22:13:18.601Z,21.46
2023-06-12T22:15:45.135Z,21.40
2023-06-12T22:18:11.827Z,21.27
2023-06-12T22:20:41.623Z,21.16
2023-06-12T22:23:09.636Z,21.02
2023-06-12T22:25:36.475Z,21.00
2023-06-12T22:28:03.235Z,20.81
2023-06-12T22:30:30.378Z,20.73
2023-06-12T22:32:56.971Z,20.61
2023-06-12T22:35:23.539Z,20.56
2023-06-12T22:37:51.203Z,20.50
2023-06-12T22:40:17.764Z,20.42
2023-06-12T22:42:47.152Z,20.36
2023-06-12T22:45:13.819Z,20.32
2023-06-12T22:47:41.146Z,20.26
2023-06-12T22:50:07.812Z,20.30
2023-06-12T22:52:34.554Z,20.26
2023-06-12T22:55:01.189Z,20.11
2023-06-12T22:57:27.640Z,19.98
2023-06-12T22:59:54.086Z,19.92
2023-06-12T23:02:20.609Z,19.76
2023-06-12T23:04:47.206Z,19.67
2023-06-12T23:07:13.715Z,19.60
2023-06-12T23:09:40.539Z,19.57
2023-06-12T23:12:08.216Z,19.47
2023-06-12T23:14:34.722Z,19.36
2023-06-12T23:17:02.656Z,19.26
2023-06-12T23:19:32.529Z,19.18
2023-06-12T23:22:00.201Z,19.14
2023-06-12T23:24:28.958Z,19.03
2023-06-12T23:26:56.975Z,18.94
2023-06-12T23:29:23.461Z,18.88
2023-06-12T23:31:49.892Z,18.83
2023-06-12T23:34:16.409Z,18.72
2023-06-12T23:36:43.009Z,18.64
2023-06-12T23:39:10.548Z,18.58
2023-06-12T23:41:38.022Z,18.54
2023-06-12T23:44:04.724Z,18.52
2023-06-12T23:46:31.246Z,18.61
2023-06-12T23:48:57.791Z,18.63
2023-06-12T23:51:24.237Z,18.62
2023-06-12T23:53:50.925Z,18.60
2023-06-12T23:56:21.152Z,18.47
2023-06-12T23:58:48.098Z,18.38
